Time;durP1;ratioP1;P1;durP2;ratioP2;P2;SDS_P1;SDS_P2;PMS_P1;PMS_P2;Temp;Humidity;BMP_temperature;BMP_pressure;BME280_temperature;BME280_humidity;BME280_pressure;Samples;Min_cycle;Max_cycle;Signal;HPM_P1;HPM_P2
2023/10/30 00:00:10;;;;;;;11.27;2.15;;;23.80;21.90;;;;;;5055703;28;20075;-62
2023/10/30 00:02:37;;;;;;;8.52;2.28;;;23.80;21.70;;;;;;5051972;28;20079;-63
2023/10/30 00:05:06;;;;;;;16.80;3.03;;;23.80;21.20;;;;;;5052752;28;20455;-64
2023/10/30 00:07:33;;;;;;;11.45;2.50;;;23.70;21.60;;;;;;5055664;28;20089;-61
2023/10/30 00:09:59;;;;;;;9.70;2.45;;;23.60;22.00;;;;;;5053363;28;20114;-62
2023/10/30 00:12:26;;;;;;;13.35;2.30;;;23.60;22.10;;;;;;5050992;28;20145;-63
2023/10/30 00:14:52;;;;;;;23.15;3.20;;;23.50;22.60;;;;;;5050299;28;20075;-64
2023/10/30 00:17:19;;;;;;;14.82;3.38;;;23.50;22.80;;;;;;5051138;28;20455;-62
2023/10/30 00:19:45;;;;;;;18.40;2.95;;;23.40;22.30;;;;;;5049656;28;20068;-64
2023/10/30 00:22:11;;;;;;;13.65;3.25;;;23.30;22.60;;;;;;5054445;28;20071;-63
2023/10/30 00:24:39;;;;;;;20.85;2.47;;;23.20;23.00;;;;;;5052968;28;20107;-62
2023/10/30 00:27:05;;;;;;;14.52;3.00;;;23.10;23.20;;;;;;5050295;28;20496;-61
2023/10/30 00:29:38;;;;;;;11.30;2.30;;;23.00;23.60;;;;;;5054050;28;20087;-65
2023/10/30 00:32:05;;;;;;;11.40;2.90;;;23.00;23.60;;;;;;5054429;28;20080;-62
2023/10/30 00:34:32;;;;;;;11.68;3.03;;;22.90;24.00;;;;;;5051904;28;20116;-64
2023/10/30 00:36:59;;;;;;;9.30;2.63;;;22.80;24.10;;;;;;5053769;28;20076;-64
2023/10/30 00:39:25;;;;;;;12.88;3.00;;;22.70;24.10;;;;;;5053751;28;20075;-62
2023/10/30 00:41:52;;;;;;;12.57;2.60;;;22.60;24.20;;;;;;5051729;28;20417;-64
2023/10/30 00:44:18;;;;;;;12.20;3.40;;;22.50;23.90;;;;;;5051994;28;20277;-62
2023/10/30 00:46:45;;;;;;;17.60;2.80;;;22.50;23.80;;;;;;5058968;28;20107;-61
2023/10/30 00:49:11;;;;;;;11.68;2.80;;;22.40;24.00;;;;;;5055645;28;20199;-61
2023/10/30 00:51:37;;;;;;;15.90;3.50;;;22.40;24.00;;;;;;5058866;28;20078;-62
2023/10/30 00:54:04;;;;;;;14.90;3.15;;;22.30;24.20;;;;;;5065320;28;20107;-63
2023/10/30 00:56:30;;;;;;;19.88;17.17;;;22.20;24.40;;;;;;5049403;28;20075;-61
2023/10/30 00:58:57;;;;;;;29.40;16.17;;;22.10;24.40;;;;;;5050016;28;20563;-60
2023/10/30 01:01:25;;;;;;;29.60;18.40;;;22.10;24.50;;;;;;5048736;28;20161;-62
2023/10/30 01:03:51;;;;;;;24.77;15.48;;;22.00;24.80;;;;;;5048623;28;20072;-59
2023/10/30 01:06:18;;;;;;;24.85;15.95;;;21.90;24.80;;;;;;5048981;28;20105;-63
2023/10/30 01:08:44;;;;;;;16.88;7.00;;;21.80;25.10;;;;;;5048024;28;20095;-62
2023/10/30 01:11:11;;;;;;;21.30;7.18;;;21.80;25.20;;;;;;5045052;28;20105;-62
2023/10/30 01:13:37;;;;;;;14.82;4.15;;;21.70;25.10;;;;;;5051280;28;20096;-62
2023/10/30 01:16:05;;;;;;;20.67;4.32;;;21.60;25.20;;;;;;5052632;28;20216;-60
2023/10/30 01:18:32;;;;;;;19.33;3.50;;;21.50;25.30;;;;;;5056158;28;20072;-61
2023/10/30 01:20:58;;;;;;;25.15;2.95;;;21.50;25.30;;;;;;5052238;28;20086;-62
2023/10/30 01:23:25;;;;;;;15.90;3.42;;;21.40;25.00;;;;;;5046977;28;20174;-61
2023/10/30 01:25:52;;;;;;;15.18;3.08;;;21.30;24.90;;;;;;5052394;28;20158;-61
2023/10/30 01:28:18;;;;;;;13.68;2.83;;;21.30;25.50;;;;;;5053622;28;20567;-60
2023/10/30 01:30:45;;;;;;;8.50;3.20;;;21.30;25.40;;;;;;5052564;28;20131;-57
2023/10/30 01:33:11;;;;;;;18.52;5.10;;;21.30;25.40;;;;;;5069816;28;20147;-61
2023/10/30 01:35:38;;;;;;;26.50;6.28;;;21.20;25.70;;;;;;5053434;28;20159;-60
2023/10/30 01:38:04;;;;;;;22.80;5.13;;;21.20;26.00;;;;;;5054275;28;20085;-61
2023/10/30 01:40:31;;;;;;;20.48;4.70;;;21.20;26.10;;;;;;5046711;28;20103;-61
2023/10/30 01:42:57;;;;;;;29.10;4.70;;;21.10;26.00;;;;;;5045130;28;20446;-60
2023/10/30 01:45:24;;;;;;;18.98;3.85;;;21.10;26.30;;;;;;5049934;28;20099;-60
2023/10/30 01:47:50;;;;;;;21.83;4.18;;;21.00;26.70;;;;;;5046435;28;20183;-61
2023/10/30 01:50:17;;;;;;;19.05;4.63;;;20.90;26.40;;;;;;5045766;28;20111;-59
2023/10/30 01:52:44;;;;;;;24.55;4.15;;;20.90;26.50;;;;;;5046535;28;20553;-61
2023/10/30 01:55:12;;;;;;;17.50;4.05;;;20.80;26.60;;;;;;5046045;28;20436;-61
2023/10/30 01:57:38;;;;;;;19.30;3.55;;;20.80;26.70;;;;;;5048546;28;20475;-62
2023/10/30 02:00:07;;;;;;;18.70;3.90;;;20.70;26.90;;;;;;5050453;28;20080;-59
2023/10/30 02:02:34;;;;;;;23.92;4.50;;;20.70;26.80;;;;;;5046205;28;20129;-59
2023/10/30 02:05:01;;;;;;;26.05;4.10;;;20.70;26.80;;;;;;5045788;28;20083;-59
2023/10/30 02:07:29;;;;;;;20.13;3.67;;;20.60;26.80;;;;;;5044912;28;20475;-59
2023/10/30 02:09:56;;;;;;;21.90;3.72;;;20.60;26.60;;;;;;5046293;28;20080;-61
2023/10/30 02:12:22;;;;;;;28.27;4.15;;;20.60;26.70;;;;;;5047136;28;20100;-58
2023/10/30 02:14:49;;;;;;;20.77;4.60;;;20.50;27.10;;;;;;5047112;28;20084;-58
2023/10/30 02:17:15;;;;;;;23.98;4.10;;;20.50;27.00;;;;;;5046285;28;20076;-58
2023/10/30 02:19:42;;;;;;;29.60;4.63;;;20.40;27.10;;;;;;5049414;28;20087;-60
2023/10/30 02:22:08;;;;;;;22.08;4.75;;;20.40;27.20;;;;;;5046534;28;20164;-61
2023/10/30 02:24:35;;;;;;;24.70;4.40;;;20.40;27.00;;;;;;5045810;28;20171;-63
2023/10/30 02:27:02;;;;;;;29.13;4.63;;;20.40;26.70;;;;;;5047273;28;20104;-60
2023/10/30 02:29:28;;;;;;;21.58;4.70;;;20.40;26.50;;;;;;5053028;28;20092;-63
2023/10/30 02:31:55;;;;;;;18.45;3.80;;;20.40;26.30;;;;;;5053339;28;20106;-58
2023/10/30 02:34:21;;;;;;;34.50;4.90;;;20.40;26.20;;;;;;5045672;28;20088;-65
2023/10/30 02:36:48;;;;;;;23.30;4.07;;;20.40;26.20;;;;;;5043102;28;20592;-60
2023/10/30 02:39:14;;;;;;;31.20;3.90;;;20.40;26.20;;;;;;5046925;28;20104;-60
2023/10/30 02:41:41;;;;;;;18.73;3.45;;;20.40;26.40;;;;;;5047003;28;20134;-58
2023/10/30 02:44:08;;;;;;;39.75;4.22;;;20.30;26.60;;;;;;5041994;28;20088;-58
2023/10/30 02:46:36;;;;;;;26.48;3.88;;;20.30;26.70;;;;;;5041702;28;20239;-58
2023/10/30 02:49:03;;;;;;;15.27;3.58;;;20.30;26.70;;;;;;5043437;28;20107;-57
2023/10/30 02:51:29;;;;;;;67.13;6.70;;;20.20;26.80;;;;;;5047465;28;20076;-57
2023/10/30 02:53:56;;;;;;;61.20;5.85;;;20.20;27.00;;;;;;5045755;28;20132;-59
2023/10/30 02:56:22;;;;;;;33.70;4.32;;;20.10;27.10;;;;;;5044474;28;20206;-67
2023/10/30 02:58:49;;;;;;;51.03;6.05;;;20.10;27.40;;;;;;5042511;28;20175;-59
2023/10/30 03:01:15;;;;;;;30.67;3.90;;;20.00;27.70;;;;;;5044676;28;20448;-60
2023/10/30 03:03:42;;;;;;;27.90;4.05;;;19.90;27.90;;;;;;5044623;28;20217;-61
2023/10/30 03:06:08;;;;;;;31.58;3.80;;;19.90;28.10;;;;;;5044117;28;20210;-62
2023/10/30 03:08:35;;;;;;;25.15;4.15;;;19.90;27.90;;;;;;5047142;28;20087;-60
2023/10/30 03:11:02;;;;;;;23.83;3.47;;;19.90;27.90;;;;;;5047299;28;20570;-61
2023/10/30 03:13:28;;;;;;;29.48;3.70;;;19.80;27.90;;;;;;5046746;28;20191;-65
2023/10/30 03:15:54;;;;;;;25.13;3.90;;;19.70;28.00;;;;;;5056660;28;20129;-61
2023/10/30 03:18:21;;;;;;;20.80;3.08;;;19.80;27.90;;;;;;5045826;28;20186;-63
2023/10/30 03:20:47;;;;;;;20.65;3.22;;;19.80;28.00;;;;;;5042331;28;20085;-61
2023/10/30 03:23:14;;;;;;;35.75;3.40;;;19.70;28.50;;;;;;5044170;28;20088;-60
2023/10/30 03:25:40;;;;;;;18.10;2.60;;;19.60;28.50;;;;;;5042311;28;20077;-62
2023/10/30 03:28:07;;;;;;;22.50;3.65;;;19.60;29.10;;;;;;5046377;28;20084;-64
2023/10/30 03:30:36;;;;;;;27.02;4.30;;;19.60;29.60;;;;;;5047255;28;20076;-62
2023/10/30 03:33:06;;;;;;;17.20;3.63;;;19.50;29.30;;;;;;5055327;28;20096;-63
2023/10/30 03:35:38;;;;;;;18.25;4.00;;;19.50;29.90;;;;;;5048777;28;20460;-65
2023/10/30 03:38:05;;;;;;;23.55;3.97;;;19.40;30.40;;;;;;5047113;28;20171;-64
2023/10/30 03:40:31;;;;;;;21.63;3.70;;;19.30;31.00;;;;;;5047950;28;20440;-64
2023/10/30 03:42:58;;;;;;;28.30;4.18;;;19.20;31.60;;;;;;5063041;28;20587;-64
2023/10/30 03:45:24;;;;;;;29.33;4.07;;;19.10;32.00;;;;;;5064138;28;20531;-62
2023/10/30 03:47:51;;;;;;;20.38;3.05;;;19.10;32.60;;;;;;5048028;28;20149;-62
2023/10/30 03:50:17;;;;;;;22.98;3.45;;;19.00;33.00;;;;;;5060108;28;20103;-63
2023/10/30 03:52:44;;;;;;;25.17;3.45;;;18.90;33.40;;;;;;5047224;28;20100;-64
2023/10/30 03:55:11;;;;;;;21.90;3.53;;;18.80;33.70;;;;;;5046070;28;20130;-60
2023/10/30 03:57:40;;;;;;;23.10;3.47;;;18.70;34.00;;;;;;5049963;28;20084;-63
2023/10/30 04:00:08;;;;;;;22.02;3.15;;;18.70;33.80;;;;;;5046951;28;20091;-67
2023/10/30 04:02:34;;;;;;;27.00;3.47;;;18.60;33.90;;;;;;5049986;28;20104;-64
2023/10/30 04:05:01;;;;;;;18.38;2.88;;;18.60;34.10;;;;;;5064625;28;20087;-63
2023/10/30 04:07:27;;;;;;;25.63;3.38;;;18.50;34.20;;;;;;5049214;28;20145;-63
2023/10/30 04:09:54;;;;;;;20.33;3.55;;;18.50;34.40;;;;;;5051494;28;20088;-64
2023/10/30 04:12:21;;;;;;;17.70;2.90;;;18.40;34.80;;;;;;5051803;28;20103;-64
2023/10/30 04:14:47;;;;;;;23.67;3.97;;;18.40;34.80;;;;;;5063837;28;20126;-62
2023/10/30 04:17:14;;;;;;;17.83;3.30;;;18.20;35.00;;;;;;5063882;28;20100;-62
2023/10/30 04:19:40;;;;;;;16.85;3.22;;;18.20;35.20;;;;;;5059409;28;20072;-62
2023/10/30 04:22:07;;;;;;;26.35;3.38;;;18.10;35.20;;;;;;5050587;28;20090;-63
2023/10/30 04:24:33;;;;;;;14.93;3.45;;;18.10;35.30;;;;;;5050881;28;20480;-63
2023/10/30 04:26:59;;;;;;;28.02;3.72;;;18.10;35.50;;;;;;5068241;28;20076;-63
2023/10/30 04:29:26;;;;;;;20.33;3.55;;;18.10;35.40;;;;;;5050273;28;20085;-65
2023/10/30 04:31:53;;;;;;;21.90;2.80;;;18.00;35.80;;;;;;5048408;28;20076;-64
2023/10/30 04:34:19;;;;;;;25.00;3.35;;;17.90;35.70;;;;;;5049866;28;20487;-62
2023/10/30 04:36:46;;;;;;;15.38;3.22;;;17.90;36.00;;;;;;5059709;28;20145;-64
2023/10/30 04:39:13;;;;;;;28.38;3.72;;;17.80;36.30;;;;;;5061216;28;20084;-62
2023/10/30 04:41:40;;;;;;;21.00;3.70;;;17.80;36.30;;;;;;5066198;28;20080;-62
2023/10/30 04:44:07;;;;;;;18.55;3.53;;;17.80;36.20;;;;;;5052953;28;20164;-63
2023/10/30 04:46:33;;;;;;;25.67;3.10;;;17.80;35.90;;;;;;5058336;28;20521;-64
2023/10/30 04:48:59;;;;;;;20.15;3.33;;;17.70;36.00;;;;;;5053513;28;20092;-64
2023/10/30 04:51:26;;;;;;;25.55;3.40;;;17.60;36.10;;;;;;5059452;28;20451;-64
2023/10/30 04:53:54;;;;;;;14.68;3.30;;;17.60;36.30;;;;;;5053791;28;20123;-63
2023/10/30 04:56:20;;;;;;;18.63;3.50;;;17.50;35.60;;;;;;5053416;28;20095;-64
2023/10/30 04:58:47;;;;;;;22.95;3.22;;;17.50;35.30;;;;;;5051264;28;20494;-64
2023/10/30 05:01:13;;;;;;;16.10;3.70;;;17.60;34.90;;;;;;5053177;28;20115;-63
2023/10/30 05:03:40;;;;;;;14.95;3.58;;;17.70;34.70;;;;;;5053092;28;20091;-62
2023/10/30 05:06:07;;;;;;;12.73;3.17;;;17.70;34.20;;;;;;5058073;28;20087;-63
2023/10/30 05:08:35;;;;;;;16.38;2.92;;;17.80;34.10;;;;;;5049594;28;20091;-64
2023/10/30 05:11:02;;;;;;;21.17;4.32;;;17.70;33.60;;;;;;5066104;28;20083;-61
2023/10/30 05:13:28;;;;;;;22.67;4.68;;;17.80;33.60;;;;;;5053456;28;20096;-63
2023/10/30 05:15:58;;;;;;;27.02;3.75;;;17.80;33.50;;;;;;5054179;28;20440;-63
2023/10/30 05:18:25;;;;;;;20.80;3.47;;;17.80;33.30;;;;;;5036797;28;20090;-62
2023/10/30 05:20:52;;;;;;;27.08;3.28;;;17.80;33.10;;;;;;5062307;28;20080;-63
2023/10/30 05:23:18;;;;;;;23.95;3.13;;;17.80;32.90;;;;;;5064483;28;20087;-63
2023/10/30 05:25:45;;;;;;;23.75;2.97;;;17.80;32.60;;;;;;5052155;28;20084;-62
2023/10/30 05:28:11;;;;;;;27.55;3.17;;;17.90;32.40;;;;;;5054280;28;20258;-62
2023/10/30 05:30:38;;;;;;;22.98;3.20;;;17.90;31.90;;;;;;5064035;28;20080;-64
2023/10/30 05:33:05;;;;;;;16.52;2.85;;;18.00;31.50;;;;;;5058644;28;20139;-65
2023/10/30 05:35:32;;;;;;;18.52;3.10;;;18.00;31.50;;;;;;5061270;28;20072;-68
2023/10/30 05:37:58;;;;;;;18.30;3.13;;;18.00;31.60;;;;;;5059592;28;20146;-62
2023/10/30 05:40:25;;;;;;;19.65;2.80;;;18.10;31.40;;;;;;5058556;28;20079;-63
2023/10/30 05:42:51;;;;;;;20.65;4.28;;;18.00;31.60;;;;;;5063264;28;20076;-64
2023/10/30 05:45:18;;;;;;;16.73;4.25;;;18.00;31.90;;;;;;5057733;28;20172;-64
2023/10/30 05:47:44;;;;;;;25.30;3.95;;;18.10;32.10;;;;;;5054358;28;20506;-65
2023/10/30 05:50:11;;;;;;;18.80;4.05;;;18.00;32.30;;;;;;5057736;28;20108;-62
2023/10/30 05:52:38;;;;;;;15.90;3.95;;;18.00;32.70;;;;;;5056231;28;20625;-65
2023/10/30 05:55:05;;;;;;;16.55;3.42;;;17.90;33.10;;;;;;5050646;28;20083;-61
2023/10/30 05:57:33;;;;;;;21.48;4.20;;;17.90;33.50;;;;;;5062388;28;20083;-64
2023/10/30 06:00:00;;;;;;;18.65;3.45;;;17.80;33.80;;;;;;5060390;28;20525;-64
2023/10/30 06:02:26;;;;;;;16.90;3.80;;;17.80;33.90;;;;;;5047996;28;20095;-64
2023/10/30 06:04:53;;;;;;;20.02;3.85;;;17.80;34.20;;;;;;5048491;28;20088;-66
2023/10/30 06:07:19;;;;;;;27.23;4.35;;;17.80;34.10;;;;;;5050092;28;20453;-64
2023/10/30 06:09:45;;;;;;;19.67;3.70;;;17.80;34.10;;;;;;5049186;28;20142;-63
2023/10/30 06:12:12;;;;;;;30.15;4.90;;;17.70;33.90;;;;;;5051037;28;20129;-63
2023/10/30 06:14:38;;;;;;;38.25;11.55;;;17.60;33.40;;;;;;5047647;28;20088;-62
2023/10/30 06:17:05;;;;;;;45.58;13.52;;;17.60;33.40;;;;;;5048404;28;20575;-63
2023/10/30 06:19:31;;;;;;;31.85;8.70;;;17.60;33.50;;;;;;5048848;28;20088;-64
2023/10/30 06:21:58;;;;;;;33.75;7.07;;;17.50;33.20;;;;;;5049983;28;20118;-66
2023/10/30 06:24:24;;;;;;;32.08;8.23;;;17.50;33.30;;;;;;5047313;28;20124;-63
2023/10/30 06:26:51;;;;;;;37.30;10.68;;;17.40;33.30;;;;;;5050521;28;20479;-65
2023/10/30 06:29:17;;;;;;;36.20;12.18;;;17.40;33.30;;;;;;5049636;28;20182;-66
2023/10/30 06:31:44;;;;;;;27.10;9.40;;;17.40;33.30;;;;;;5046030;28;20451;-63
2023/10/30 06:34:10;;;;;;;26.02;8.02;;;17.40;33.30;;;;;;5047702;28;20088;-60
2023/10/30 06:36:37;;;;;;;24.40;6.68;;;17.40;32.90;;;;;;5051371;28;20076;-66
2023/10/30 06:39:04;;;;;;;27.73;5.50;;;17.40;32.90;;;;;;5047981;28;20076;-64
2023/10/30 06:41:31;;;;;;;21.05;5.85;;;17.40;32.90;;;;;;5047599;28;20076;-64
2023/10/30 06:43:57;;;;;;;30.17;7.85;;;17.40;32.80;;;;;;5057850;28;20110;-67
2023/10/30 06:46:24;;;;;;;25.25;7.10;;;17.40;32.50;;;;;;5047897;28;20099;-64
2023/10/30 06:48:50;;;;;;;30.73;7.13;;;17.40;32.40;;;;;;5047787;28;20488;-67
2023/10/30 06:51:17;;;;;;;29.95;6.50;;;17.40;32.00;;;;;;5054211;28;20085;-66
2023/10/30 06:53:43;;;;;;;26.55;6.13;;;17.40;31.60;;;;;;5046468;28;20104;-61
2023/10/30 06:56:10;;;;;;;26.42;6.03;;;17.40;31.30;;;;;;5047876;28;20575;-64
2023/10/30 06:58:36;;;;;;;24.58;5.85;;;17.30;31.20;;;;;;5062621;28;20567;-63
2023/10/30 07:01:04;;;;;;;20.00;5.00;;;17.40;31.30;;;;;;5062415;28;20167;-61
2023/10/30 07:03:32;;;;;;;23.92;5.28;;;17.30;31.10;;;;;;5047376;28;20080;-63
2023/10/30 07:05:59;;;;;;;25.73;4.65;;;17.30;31.20;;;;;;5046304;28;20084;-64
2023/10/30 07:08:25;;;;;;;19.23;4.47;;;17.30;31.20;;;;;;5047446;28;20084;-62
2023/10/30 07:10:52;;;;;;;27.25;4.60;;;17.30;31.50;;;;;;5057433;28;20141;-64
2023/10/30 07:13:19;;;;;;;21.52;4.07;;;17.30;31.40;;;;;;5055260;28;20626;-62
2023/10/30 07:15:45;;;;;;;34.65;6.47;;;17.30;31.50;;;;;;5054186;28;20106;-66
2023/10/30 07:18:12;;;;;;;20.13;3.92;;;17.30;31.70;;;;;;5060956;28;20080;-63
2023/10/30 07:20:38;;;;;;;18.73;3.72;;;17.30;32.00;;;;;;5059152;28;20137;-64
2023/10/30 07:23:04;;;;;;;21.73;3.25;;;17.30;32.30;;;;;;5046363;28;20072;-62
2023/10/30 07:25:31;;;;;;;29.75;3.67;;;17.30;32.60;;;;;;5046868;28;20429;-64
2023/10/30 07:27:57;;;;;;;23.05;3.60;;;17.30;33.00;;;;;;5046279;28;20099;-64
2023/10/30 07:30:25;;;;;;;30.85;3.60;;;17.40;33.50;;;;;;5046094;28;20171;-63
2023/10/30 07:32:51;;;;;;;21.60;3.10;;;17.40;33.90;;;;;;5046335;28;20100;-64
2023/10/30 07:35:18;;;;;;;25.30;3.45;;;17.40;34.10;;;;;;5044545;28;20091;-63
2023/10/30 07:37:45;;;;;;;25.08;3.00;;;17.40;34.40;;;;;;5046011;28;20494;-63
2023/10/30 07:40:11;;;;;;;21.48;3.17;;;17.40;34.60;;;;;;5045965;28;20072;-62
2023/10/30 07:42:39;;;;;;;24.20;3.35;;;17.40;34.60;;;;;;5046568;28;20171;-64
2023/10/30 07:45:06;;;;;;;18.58;2.92;;;17.40;34.70;;;;;;5050704;28;20405;-63
2023/10/30 07:47:32;;;;;;;15.05;2.80;;;17.50;34.60;;;;;;5050487;28;20425;-64
2023/10/30 07:50:01;;;;;;;23.40;2.90;;;17.50;34.70;;;;;;5058421;28;20122;-62
2023/10/30 07:52:28;;;;;;;16.27;3.03;;;17.50;34.80;;;;;;5056047;28;20123;-69
2023/10/30 07:54:54;;;;;;;17.45;2.72;;;17.50;34.80;;;;;;5044020;28;20099;-63
2023/10/30 07:57:21;;;;;;;17.05;2.70;;;17.50;34.90;;;;;;5045647;28;20114;-62
2023/10/30 07:59:47;;;;;;;14.70;2.83;;;17.50;34.90;;;;;;5056421;28;20072;-63
2023/10/30 08:02:14;;;;;;;20.48;3.13;;;17.50;34.60;;;;;;5046274;28;20127;-61
2023/10/30 08:04:40;;;;;;;18.77;3.05;;;17.40;34.30;;;;;;5046292;28;20080;-62
2023/10/30 08:07:06;;;;;;;13.10;3.30;;;17.40;34.10;;;;;;5054586;28;20107;-64
2023/10/30 08:09:33;;;;;;;11.60;3.28;;;17.40;33.70;;;;;;5044421;28;20084;-56
2023/10/30 08:11:59;;;;;;;25.23;3.13;;;17.70;33.70;;;;;;5046385;28;20171;-58
2023/10/30 08:14:27;;;;;;;20.38;3.10;;;17.80;33.70;;;;;;5045875;28;20173;-61
2023/10/30 08:16:53;;;;;;;14.05;2.45;;;17.90;33.30;;;;;;5046041;28;20131;-59
2023/10/30 08:19:20;;;;;;;18.80;3.80;;;17.90;33.30;;;;;;5061064;28;20559;-61
2023/10/30 08:21:46;;;;;;;15.20;2.95;;;17.90;33.50;;;;;;5045646;28;20081;-60
2023/10/30 08:24:13;;;;;;;21.08;3.25;;;18.00;33.80;;;;;;5053444;28;20083;-61
2023/10/30 08:26:39;;;;;;;14.02;2.83;;;18.00;33.70;;;;;;5049996;28;20106;-57
2023/10/30 08:29:06;;;;;;;14.70;2.35;;;18.00;33.50;;;;;;5047078;28;20080;-60
2023/10/30 08:31:32;;;;;;;17.20;3.22;;;18.00;33.40;;;;;;5056998;28;20540;-60
2023/10/30 08:34:01;;;;;;;17.15;2.45;;;18.00;33.50;;;;;;5054021;28;20126;-59
2023/10/30 08:36:27;;;;;;;14.23;2.38;;;18.00;33.40;;;;;;5054950;28;20076;-60
2023/10/30 08:38:54;;;;;;;15.98;2.90;;;17.90;33.60;;;;;;5053140;28;20088;-58
2023/10/30 08:41:20;;;;;;;14.35;2.60;;;17.80;33.70;;;;;;5052402;28;20095;-61
2023/10/30 08:43:47;;;;;;;14.80;2.60;;;17.80;33.50;;;;;;5049687;28;20552;-59
2023/10/30 08:46:18;;;;;;;23.90;3.10;;;17.70;33.40;;;;;;5056510;28;20095;-60
2023/10/30 08:48:45;;;;;;;13.50;2.97;;;17.60;33.30;;;;;;5053089;28;20086;-59
2023/10/30 08:51:11;;;;;;;17.20;2.65;;;17.60;33.40;;;;;;5050944;28;20154;-59
2023/10/30 08:53:38;;;;;;;17.95;3.40;;;17.60;33.60;;;;;;5048652;28;20097;-60
2023/10/30 08:56:05;;;;;;;20.58;3.08;;;17.50;33.20;;;;;;5047696;28;20091;-59
2023/10/30 08:58:32;;;;;;;23.40;3.80;;;17.50;33.40;;;;;;5049304;28;20104;-60
2023/10/30 09:00:58;;;;;;;16.08;2.90;;;17.50;33.20;;;;;;5048723;28;20080;-57
2023/10/30 09:03:25;;;;;;;14.35;3.38;;;17.40;33.20;;;;;;5056499;28;20198;-61
2023/10/30 09:05:51;;;;;;;21.13;3.15;;;17.40;33.30;;;;;;5057242;28;20103;-59
2023/10/30 09:08:17;;;;;;;19.60;2.90;;;17.30;33.30;;;;;;5049693;28;20167;-59
2023/10/30 09:10:44;;;;;;;15.73;3.25;;;17.30;33.30;;;;;;5054772;28;20459;-58
2023/10/30 09:13:10;;;;;;;17.63;4.18;;;17.30;33.60;;;;;;5064466;28;20092;-57
2023/10/30 09:15:37;;;;;;;17.98;4.38;;;17.30;33.60;;;;;;5060454;28;20547;-60
2023/10/30 09:18:04;;;;;;;12.50;3.67;;;17.30;33.70;;;;;;5048884;28;20115;-59
2023/10/30 09:20:30;;;;;;;17.58;3.25;;;17.20;34.00;;;;;;5047867;28;20068;-60
2023/10/30 09:22:57;;;;;;;23.15;3.55;;;17.20;33.90;;;;;;5048136;28;20080;-60
2023/10/30 09:25:23;;;;;;;15.98;3.00;;;17.20;34.20;;;;;;5046960;28;21042;-62
2023/10/30 09:27:52;;;;;;;17.35;2.97;;;17.10;33.90;;;;;;5048592;28;20170;-59
2023/10/30 09:30:19;;;;;;;21.65;2.70;;;17.10;34.10;;;;;;5049771;28;20150;-59
2023/10/30 09:32:46;;;;;;;14.32;2.90;;;17.10;34.70;;;;;;5047973;28;20092;-59
2023/10/30 09:35:12;;;;;;;18.50;3.03;;;17.00;34.50;;;;;;5047594;28;20107;-60
2023/10/30 09:37:39;;;;;;;14.02;2.70;;;17.00;34.10;;;;;;5048134;28;20130;-59
2023/10/30 09:40:07;;;;;;;15.35;2.50;;;16.90;34.40;;;;;;5048162;28;20541;-61
2023/10/30 09:42:36;;;;;;;19.05;3.05;;;16.90;34.50;;;;;;5046928;28;20533;-60
2023/10/30 09:45:06;;;;;;;20.00;2.97;;;16.80;35.00;;;;;;5050202;28;20089;-60
2023/10/30 09:47:33;;;;;;;16.85;2.67;;;16.80;35.10;;;;;;5058247;28;20087;-59
2023/10/30 09:50:00;;;;;;;22.13;3.15;;;16.80;35.30;;;;;;5054459;28;20154;-59
2023/10/30 09:52:29;;;;;;;11.63;2.45;;;16.80;35.30;;;;;;5053309;28;20527;-62
2023/10/30 09:54:56;;;;;;;15.70;2.40;;;16.80;35.30;;;;;;5050804;28;20511;-60
2023/10/30 09:57:24;;;;;;;16.38;2.65;;;16.80;35.60;;;;;;5055135;28;20116;-58
2023/10/30 09:59:54;;;;;;;10.50;2.70;;;16.80;35.50;;;;;;5047662;28;20467;-58
2023/10/30 10:02:21;;;;;;;18.23;2.70;;;16.70;35.20;;;;;;5046660;28;20487;-59
2023/10/30 10:04:47;;;;;;;13.13;2.53;;;16.70;35.00;;;;;;5047347;28;20076;-57
2023/10/30 10:07:15;;;;;;;11.40;2.60;;;16.70;35.00;;;;;;5046884;28;20090;-61
2023/10/30 10:10:01;;;;;;;19.42;2.65;;;16.70;34.80;;;;;;5047214;28;20559;-57
2023/10/30 10:12:29;;;;;;;11.77;2.60;;;16.70;34.90;;;;;;5046532;28;20087;-58
2023/10/30 10:14:55;;;;;;;9.98;2.83;;;16.70;34.70;;;;;;5045004;28;20528;-61
2023/10/30 10:17:22;;;;;;;14.77;3.00;;;16.70;34.90;;;;;;5045888;28;20449;-60
2023/10/30 10:19:49;;;;;;;10.25;2.13;;;16.70;35.10;;;;;;5047073;28;20085;-60
2023/10/30 10:22:28;;;;;;;13.25;2.60;;;16.80;35.30;;;;;;5047087;28;20500;-57
2023/10/30 10:24:55;;;;;;;16.92;2.40;;;16.70;35.70;;;;;;5047531;28;20092;-60
2023/10/30 10:27:24;;;;;;;14.15;2.40;;;16.70;35.80;;;;;;5047496;28;20081;-59
2023/10/30 10:29:54;;;;;;;15.80;2.47;;;16.70;35.70;;;;;;5047286;28;20076;-62
2023/10/30 10:32:30;;;;;;;16.73;2.65;;;16.70;36.00;;;;;;5046989;28;20533;-59
2023/10/30 10:35:05;;;;;;;18.60;2.92;;;16.70;35.70;;;;;;5046926;28;20199;-59
2023/10/30 10:37:32;;;;;;;11.35;2.38;;;16.70;35.20;;;;;;5045935;28;20125;-60
2023/10/30 10:40:00;;;;;;;15.18;2.15;;;16.70;35.60;;;;;;5045611;28;20096;-58
2023/10/30 10:42:28;;;;;;;9.25;2.30;;;16.70;35.30;;;;;;5047118;28;20080;-59
2023/10/30 10:44:55;;;;;;;10.20;2.60;;;16.70;35.50;;;;;;5050029;28;20480;-58
2023/10/30 10:47:22;;;;;;;13.82;3.00;;;16.60;35.60;;;;;;5045398;28;20076;-57
2023/10/30 10:49:50;;;;;;;12.70;2.90;;;16.50;35.90;;;;;;5048977;28;20097;-57
2023/10/30 10:52:19;;;;;;;16.98;3.00;;;16.50;35.70;;;;;;5050977;28;20072;-59
2023/10/30 10:55:05;;;;;;;9.80;2.35;;;16.40;35.70;;;;;;5051314;28;20080;-56
2023/10/30 10:57:58;;;;;;;14.25;3.03;;;16.50;35.90;;;;;;5046051;28;20083;-57
2023/10/30 11:00:30;;;;;;;15.73;3.00;;;16.40;35.80;;;;;;5046379;28;20545;-57
2023/10/30 11:03:04;;;;;;;13.50;2.70;;;16.30;35.90;;;;;;5044845;28;20083;-57
2023/10/30 11:05:33;;;;;;;13.40;2.70;;;16.30;36.30;;;;;;5046258;28;20076;-57
2023/10/30 11:08:08;;;;;;;13.95;3.10;;;16.30;36.30;;;;;;5046384;28;20540;-57
2023/10/30 11:10:49;;;;;;;14.55;2.55;;;16.30;36.70;;;;;;5045455;28;20519;-60
2023/10/30 11:13:28;;;;;;;9.10;2.40;;;16.30;36.40;;;;;;5044908;28;20501;-60
2023/10/30 11:16:04;;;;;;;11.80;2.30;;;16.20;36.60;;;;;;5045495;28;20102;-57
2023/10/30 11:18:33;;;;;;;17.75;2.72;;;16.20;36.60;;;;;;5046317;28;20174;-59
2023/10/30 11:21:15;;;;;;;16.80;3.10;;;16.20;36.90;;;;;;5046338;28;20781;-58
2023/10/30 11:23:49;;;;;;;14.02;2.78;;;16.20;37.20;;;;;;5046594;28;20096;-59
2023/10/30 11:26:36;;;;;;;16.45;3.17;;;16.20;37.20;;;;;;5046223;28;20444;-59
2023/10/30 11:29:10;;;;;;;;;;;16.20;36.80;;;;;;5049853;28;20664;-58
2023/10/30 11:32:04;;;;;;;15.95;3.00;;;16.10;36.80;;;;;;5046558;28;19969;-57
2023/10/30 11:34:32;;;;;;;11.05;2.65;;;16.20;37.30;;;;;;5052990;28;20096;-59
2023/10/30 11:37:21;;;;;;;12.27;2.65;;;16.20;37.10;;;;;;5052741;28;20106;-59
2023/10/30 11:39:50;;;;;;;12.88;2.50;;;16.20;37.30;;;;;;5046327;28;20083;-58
2023/10/30 11:42:23;;;;;;;10.25;2.85;;;16.10;37.60;;;;;;5054735;28;20537;-59
2023/10/30 11:44:53;;;;;;;14.45;2.72;;;16.20;37.70;;;;;;5046521;28;20087;-57
2023/10/30 11:47:24;;;;;;;17.40;3.08;;;16.20;38.20;;;;;;5048630;28;20075;-59
2023/10/30 11:49:58;;;;;;;16.90;3.30;;;16.10;38.10;;;;;;5054760;28;20100;-59
2023/10/30 11:52:24;;;;;;;14.95;2.75;;;16.10;38.10;;;;;;5045914;28;20084;-59
2023/10/30 11:54:51;;;;;;;15.18;3.05;;;16.00;38.20;;;;;;5045314;28;20083;-59
2023/10/30 11:57:17;;;;;;;14.20;2.90;;;16.00;38.20;;;;;;5045362;28;20096;-58
2023/10/30 11:59:44;;;;;;;11.23;2.80;;;16.00;38.50;;;;;;5050913;28;20444;-58
2023/10/30 12:02:10;;;;;;;17.60;3.03;;;15.90;38.20;;;;;;5051394;28;20087;-57
2023/10/30 12:04:37;;;;;;;12.65;3.10;;;15.90;38.40;;;;;;5045713;28;20175;-57
2023/10/30 12:07:04;;;;;;;14.65;2.78;;;15.90;38.60;;;;;;5045066;28;20089;-61
2023/10/30 12:09:31;;;;;;;17.40;2.60;;;15.90;38.70;;;;;;5045471;28;20080;-58
2023/10/30 12:11:57;;;;;;;12.35;2.90;;;15.90;38.70;;;;;;5044906;28;20697;-60
2023/10/30 12:14:24;;;;;;;14.50;2.42;;;15.90;39.00;;;;;;5045320;28;20096;-58
2023/10/30 12:16:51;;;;;;;13.68;2.88;;;15.80;39.00;;;;;;5044891;28;20496;-60
2023/10/30 12:19:22;;;;;;;13.48;2.80;;;15.80;38.90;;;;;;5045481;28;20108;-59
2023/10/30 12:21:49;;;;;;;16.77;2.72;;;15.80;38.80;;;;;;5046651;28;20081;-58
2023/10/30 12:24:16;;;;;;;17.85;3.30;;;15.80;39.30;;;;;;5049845;28;20414;-59
2023/10/30 12:26:44;;;;;;;18.05;2.85;;;15.80;39.30;;;;;;5049077;28;20093;-59
2023/10/30 12:29:11;;;;;;;23.60;3.03;;;15.80;39.30;;;;;;5057895;28;20080;-60
2023/10/30 12:31:37;;;;;;;18.70;3.22;;;15.80;39.20;;;;;;5049506;28;20077;-57
2023/10/30 12:34:10;;;;;;;18.88;2.85;;;15.80;39.60;;;;;;5049694;28;20183;-58
2023/10/30 12:36:37;;;;;;;14.05;2.97;;;15.70;39.30;;;;;;5060908;28;20075;-59
2023/10/30 12:39:20;;;;;;;18.30;3.22;;;15.70;39.60;;;;;;5053770;28;20148;-61